sensor_id;sensor_type;location;lat;lon;timestamp;P1;durP1;ratioP1;P2;durP2;ratioP2
16037;SDS011;8123;50.906;6.172;2022-07-29T00:02:03;6.00;;;2.70;;
16037;SDS011;8123;50.906;6.172;2022-07-29T00:04:29;5.50;;;2.77;;
16037;SDS011;8123;50.906;6.172;2022-07-29T00:06:54;5.93;;;2.70;;
16037;SDS011;8123;50.906;6.172;2022-07-29T00:09:21;7.63;;;2.50;;
16037;SDS011;8123;50.906;6.172;2022-07-29T00:11:47;3.97;;;2.23;;
16037;SDS011;8123;50.906;6.172;2022-07-29T00:14:13;7.90;;;2.40;;
16037;SDS011;8123;50.906;6.172;2022-07-29T00:16:38;2.50;;;2.00;;
16037;SDS011;8123;50.906;6.172;2022-07-29T00:19:04;8.23;;;3.33;;
16037;SDS011;8123;50.906;6.172;2022-07-29T00:21:30;4.40;;;2.13;;
16037;SDS011;8123;50.906;6.172;2022-07-29T00:23:55;6.97;;;3.00;;
16037;SDS011;8123;50.906;6.172;2022-07-29T00:26:21;2.67;;;2.33;;
16037;SDS011;8123;50.906;6.172;2022-07-29T00:28:47;5.83;;;2.33;;
16037;SDS011;8123;50.906;6.172;2022-07-29T00:31:12;3.53;;;3.20;;
16037;SDS011;8123;50.906;6.172;2022-07-29T00:33:38;9.57;;;3.33;;
16037;SDS011;8123;50.906;6.172;2022-07-29T00:36:04;5.43;;;2.17;;
16037;SDS011;8123;50.906;6.172;2022-07-29T00:38:29;6.80;;;2.60;;
16037;SDS011;8123;50.906;6.172;2022-07-29T00:40:55;6.77;;;2.73;;
16037;SDS011;8123;50.906;6.172;2022-07-29T00:43:21;7.93;;;2.67;;
16037;SDS011;8123;50.906;6.172;2022-07-29T00:45:46;8.60;;;2.50;;
16037;SDS011;8123;50.906;6.172;2022-07-29T00:48:12;8.10;;;2.53;;
16037;SDS011;8123;50.906;6.172;2022-07-29T00:50:38;8.53;;;2.70;;
16037;SDS011;8123;50.906;6.172;2022-07-29T00:53:04;9.50;;;2.67;;
16037;SDS011;8123;50.906;6.172;2022-07-29T00:55:31;5.97;;;2.57;;
16037;SDS011;8123;50.906;6.172;2022-07-29T00:57:57;13.60;;;3.47;;
16037;SDS011;8123;50.906;6.172;2022-07-29T01:00:24;8.17;;;2.80;;
16037;SDS011;8123;50.906;6.172;2022-07-29T01:02:51;4.13;;;2.47;;
16037;SDS011;8123;50.906;6.172;2022-07-29T01:05:18;7.63;;;2.50;;
16037;SDS011;8123;50.906;6.172;2022-07-29T01:07:46;5.00;;;2.43;;
16037;SDS011;8123;50.906;6.172;2022-07-29T01:10:14;9.23;;;2.47;;
16037;SDS011;8123;50.906;6.172;2022-07-29T01:12:41;5.37;;;2.60;;
16037;SDS011;8123;50.906;6.172;2022-07-29T01:15:09;8.23;;;2.60;;
16037;SDS011;8123;50.906;6.172;2022-07-29T01:22:49;3.43;;;2.77;;
16037;SDS011;8123;50.906;6.172;2022-07-29T01:31:12;3.30;;;2.80;;
16037;SDS011;8123;50.906;6.172;2022-07-29T01:33:48;4.90;;;3.00;;
16037;SDS011;8123;50.906;6.172;2022-07-29T01:36:25;10.70;;;2.80;;
16037;SDS011;8123;50.906;6.172;2022-07-29T01:39:11;4.83;;;2.80;;
16037;SDS011;8123;50.906;6.172;2022-07-29T01:41:59;5.20;;;3.20;;
16037;SDS011;8123;50.906;6.172;2022-07-29T01:45:03;12.10;;;3.30;;
16037;SDS011;8123;50.906;6.172;2022-07-29T01:47:40;10.77;;;3.00;;
16037;SDS011;8123;50.906;6.172;2022-07-29T01:50:34;3.63;;;2.73;;
16037;SDS011;8123;50.906;6.172;2022-07-29T01:53:07;9.57;;;3.43;;
16037;SDS011;8123;50.906;6.172;2022-07-29T01:55:36;12.43;;;3.67;;
16037;SDS011;8123;50.906;6.172;2022-07-29T01:58:05;7.20;;;3.40;;
16037;SDS011;8123;50.906;6.172;2022-07-29T02:00:33;14.33;;;3.07;;
16037;SDS011;8123;50.906;6.172;2022-07-29T02:03:04;12.63;;;3.37;;
16037;SDS011;8123;50.906;6.172;2022-07-29T02:05:34;11.73;;;3.90;;
16037;SDS011;8123;50.906;6.172;2022-07-29T02:08:02;10.07;;;3.40;;
16037;SDS011;8123;50.906;6.172;2022-07-29T02:10:29;11.23;;;3.90;;
16037;SDS011;8123;50.906;6.172;2022-07-29T02:13:00;7.83;;;3.10;;
16037;SDS011;8123;50.906;6.172;2022-07-29T02:15:28;6.40;;;3.70;;
16037;SDS011;8123;50.906;6.172;2022-07-29T02:18:01;3.87;;;2.80;;
16037;SDS011;8123;50.906;6.172;2022-07-29T02:20:32;5.13;;;3.30;;
16037;SDS011;8123;50.906;6.172;2022-07-29T02:22:59;3.50;;;2.67;;
16037;SDS011;8123;50.906;6.172;2022-07-29T02:25:27;8.90;;;3.20;;
16037;SDS011;8123;50.906;6.172;2022-07-29T02:27:53;3.30;;;2.90;;
16037;SDS011;8123;50.906;6.172;2022-07-29T02:30:21;3.93;;;2.83;;
16037;SDS011;8123;50.906;6.172;2022-07-29T02:32:48;9.40;;;3.87;;
16037;SDS011;8123;50.906;6.172;2022-07-29T02:35:14;8.53;;;2.97;;
16037;SDS011;8123;50.906;6.172;2022-07-29T02:37:42;3.27;;;2.70;;
16037;SDS011;8123;50.906;6.172;2022-07-29T02:40:11;3.03;;;2.70;;
16037;SDS011;8123;50.906;6.172;2022-07-29T02:42:42;4.57;;;2.63;;
16037;SDS011;8123;50.906;6.172;2022-07-29T02:45:09;6.50;;;3.13;;
16037;SDS011;8123;50.906;6.172;2022-07-29T02:47:39;8.40;;;3.33;;
16037;SDS011;8123;50.906;6.172;2022-07-29T02:50:10;7.03;;;2.70;;
16037;SDS011;8123;50.906;6.172;2022-07-29T02:52:57;5.67;;;3.33;;
16037;SDS011;8123;50.906;6.172;2022-07-29T03:00:46;4.30;;;2.63;;
16037;SDS011;8123;50.906;6.172;2022-07-29T03:03:15;12.83;;;2.53;;
16037;SDS011;8123;50.906;6.172;2022-07-29T03:05:42;7.33;;;2.40;;
16037;SDS011;8123;50.906;6.172;2022-07-29T03:08:09;7.43;;;2.70;;
16037;SDS011;8123;50.906;6.172;2022-07-29T03:10:39;5.43;;;2.30;;
16037;SDS011;8123;50.906;6.172;2022-07-29T03:13:07;5.43;;;2.67;;
16037;SDS011;8123;50.906;6.172;2022-07-29T03:15:35;3.93;;;2.73;;
16037;SDS011;8123;50.906;6.172;2022-07-29T03:18:01;11.00;;;3.80;;
16037;SDS011;8123;50.906;6.172;2022-07-29T03:20:27;6.07;;;2.87;;
16037;SDS011;8123;50.906;6.172;2022-07-29T03:22:53;5.50;;;3.43;;
16037;SDS011;8123;50.906;6.172;2022-07-29T03:25:19;5.87;;;3.17;;
16037;SDS011;8123;50.906;6.172;2022-07-29T03:27:47;4.00;;;2.97;;
16037;SDS011;8123;50.906;6.172;2022-07-29T03:30:13;8.70;;;3.13;;
16037;SDS011;8123;50.906;6.172;2022-07-29T03:32:40;5.60;;;3.40;;
16037;SDS011;8123;50.906;6.172;2022-07-29T03:35:06;6.00;;;3.40;;
16037;SDS011;8123;50.906;6.172;2022-07-29T03:37:32;17.17;;;2.90;;
16037;SDS011;8123;50.906;6.172;2022-07-29T03:39:58;6.77;;;2.93;;
16037;SDS011;8123;50.906;6.172;2022-07-29T03:42:26;12.83;;;3.57;;
16037;SDS011;8123;50.906;6.172;2022-07-29T03:44:57;7.37;;;3.93;;
16037;SDS011;8123;50.906;6.172;2022-07-29T03:47:25;11.83;;;4.27;;
16037;SDS011;8123;50.906;6.172;2022-07-29T03:49:56;6.07;;;3.70;;
16037;SDS011;8123;50.906;6.172;2022-07-29T03:52:26;6.17;;;4.60;;
16037;SDS011;8123;50.906;6.172;2022-07-29T03:54:52;5.50;;;3.33;;
16037;SDS011;8123;50.906;6.172;2022-07-29T03:57:18;9.13;;;4.47;;
16037;SDS011;8123;50.906;6.172;2022-07-29T03:59:48;6.03;;;3.77;;
16037;SDS011;8123;50.906;6.172;2022-07-29T04:02:15;7.60;;;3.45;;
16037;SDS011;8123;50.906;6.172;2022-07-29T04:04:41;13.13;;;4.47;;
16037;SDS011;8123;50.906;6.172;2022-07-29T04:07:09;12.60;;;4.00;;
16037;SDS011;8123;50.906;6.172;2022-07-29T04:09:37;9.50;;;3.57;;
16037;SDS011;8123;50.906;6.172;2022-07-29T04:12:03;14.13;;;3.97;;
16037;SDS011;8123;50.906;6.172;2022-07-29T04:14:29;7.27;;;3.50;;
16037;SDS011;8123;50.906;6.172;2022-07-29T04:16:59;7.23;;;3.40;;
16037;SDS011;8123;50.906;6.172;2022-07-29T04:19:25;8.03;;;3.47;;
16037;SDS011;8123;50.906;6.172;2022-07-29T04:21:51;4.63;;;3.20;;
16037;SDS011;8123;50.906;6.172;2022-07-29T04:24:16;3.20;;;3.00;;
16037;SDS011;8123;50.906;6.172;2022-07-29T04:26:42;10.77;;;3.40;;
16037;SDS011;8123;50.906;6.172;2022-07-29T04:29:09;9.40;;;3.30;;
16037;SDS011;8123;50.906;6.172;2022-07-29T04:31:36;5.90;;;3.40;;
16037;SDS011;8123;50.906;6.172;2022-07-29T04:34:02;8.40;;;3.87;;
16037;SDS011;8123;50.906;6.172;2022-07-29T04:36:28;4.00;;;3.20;;
16037;SDS011;8123;50.906;6.172;2022-07-29T04:38:54;10.10;;;3.50;;
16037;SDS011;8123;50.906;6.172;2022-07-29T04:41:19;14.23;;;3.33;;
16037;SDS011;8123;50.906;6.172;2022-07-29T04:43:45;7.83;;;5.87;;
16037;SDS011;8123;50.906;6.172;2022-07-29T04:46:11;11.87;;;3.30;;
16037;SDS011;8123;50.906;6.172;2022-07-29T04:48:36;6.70;;;3.57;;
16037;SDS011;8123;50.906;6.172;2022-07-29T04:51:02;6.57;;;3.13;;
16037;SDS011;8123;50.906;6.172;2022-07-29T04:53:28;4.53;;;3.60;;
16037;SDS011;8123;50.906;6.172;2022-07-29T04:55:54;7.13;;;3.30;;
16037;SDS011;8123;50.906;6.172;2022-07-29T04:58:20;5.90;;;3.33;;
16037;SDS011;8123;50.906;6.172;2022-07-29T05:00:48;3.10;;;2.83;;
16037;SDS011;8123;50.906;6.172;2022-07-29T05:03:13;14.20;;;3.60;;
16037;SDS011;8123;50.906;6.172;2022-07-29T05:05:39;6.03;;;3.03;;
16037;SDS011;8123;50.906;6.172;2022-07-29T05:08:05;12.80;;;3.80;;
16037;SDS011;8123;50.906;6.172;2022-07-29T05:10:31;4.60;;;3.80;;
16037;SDS011;8123;50.906;6.172;2022-07-29T05:12:57;7.23;;;3.90;;
16037;SDS011;8123;50.906;6.172;2022-07-29T05:15:23;5.57;;;4.10;;
16037;SDS011;8123;50.906;6.172;2022-07-29T05:17:49;8.53;;;3.63;;
16037;SDS011;8123;50.906;6.172;2022-07-29T05:20:14;8.43;;;3.83;;
16037;SDS011;8123;50.906;6.172;2022-07-29T05:22:40;13.70;;;5.20;;
16037;SDS011;8123;50.906;6.172;2022-07-29T05:25:05;23.97;;;5.33;;
16037;SDS011;8123;50.906;6.172;2022-07-29T05:27:31;19.70;;;4.40;;
16037;SDS011;8123;50.906;6.172;2022-07-29T05:29:57;11.93;;;4.20;;
16037;SDS011;8123;50.906;6.172;2022-07-29T05:32:23;23.77;;;4.90;;
16037;SDS011;8123;50.906;6.172;2022-07-29T05:34:48;9.27;;;4.73;;
16037;SDS011;8123;50.906;6.172;2022-07-29T05:37:14;14.53;;;4.93;;
16037;SDS011;8123;50.906;6.172;2022-07-29T05:39:40;13.30;;;4.50;;
16037;SDS011;8123;50.906;6.172;2022-07-29T05:42:11;8.27;;;4.50;;
16037;SDS011;8123;50.906;6.172;2022-07-29T05:44:38;18.80;;;4.43;;
16037;SDS011;8123;50.906;6.172;2022-07-29T05:47:04;10.13;;;4.33;;
16037;SDS011;8123;50.906;6.172;2022-07-29T05:49:29;15.20;;;4.60;;
16037;SDS011;8123;50.906;6.172;2022-07-29T05:51:55;12.30;;;4.77;;
16037;SDS011;8123;50.906;6.172;2022-07-29T05:54:21;10.90;;;4.20;;
16037;SDS011;8123;50.906;6.172;2022-07-29T05:56:46;9.17;;;3.40;;
16037;SDS011;8123;50.906;6.172;2022-07-29T05:59:12;16.13;;;4.37;;
16037;SDS011;8123;50.906;6.172;2022-07-29T06:01:37;10.33;;;4.10;;
16037;SDS011;8123;50.906;6.172;2022-07-29T06:04:04;6.27;;;4.47;;
16037;SDS011;8123;50.906;6.172;2022-07-29T06:06:31;5.90;;;3.97;;
16037;SDS011;8123;50.906;6.172;2022-07-29T06:08:58;5.20;;;4.00;;
16037;SDS011;8123;50.906;6.172;2022-07-29T06:11:24;7.90;;;4.07;;
16037;SDS011;8123;50.906;6.172;2022-07-29T06:13:49;14.57;;;4.50;;
16037;SDS011;8123;50.906;6.172;2022-07-29T06:16:15;7.13;;;4.27;;
16037;SDS011;8123;50.906;6.172;2022-07-29T06:18:41;6.00;;;4.43;;
16037;SDS011;8123;50.906;6.172;2022-07-29T06:21:07;8.57;;;4.10;;
16037;SDS011;8123;50.906;6.172;2022-07-29T06:23:34;8.53;;;4.60;;
16037;SDS011;8123;50.906;6.172;2022-07-29T06:26:01;11.17;;;4.23;;
16037;SDS011;8123;50.906;6.172;2022-07-29T06:28:27;8.10;;;4.27;;
16037;SDS011;8123;50.906;6.172;2022-07-29T06:30:53;7.10;;;4.10;;
16037;SDS011;8123;50.906;6.172;2022-07-29T06:33:18;6.83;;;4.13;;
16037;SDS011;8123;50.906;6.172;2022-07-29T06:35:44;10.07;;;4.83;;
16037;SDS011;8123;50.906;6.172;2022-07-29T06:38:12;14.53;;;5.10;;
16037;SDS011;8123;50.906;6.172;2022-07-29T06:40:40;7.63;;;5.00;;
16037;SDS011;8123;50.906;6.172;2022-07-29T06:43:28;7.43;;;4.40;;
16037;SDS011;8123;50.906;6.172;2022-07-29T06:46:03;12.40;;;4.87;;
16037;SDS011;8123;50.906;6.172;2022-07-29T06:48:30;8.40;;;4.00;;
16037;SDS011;8123;50.906;6.172;2022-07-29T06:50:56;9.83;;;4.33;;
16037;SDS011;8123;50.906;6.172;2022-07-29T06:53:22;9.43;;;4.20;;
16037;SDS011;8123;50.906;6.172;2022-07-29T06:55:48;4.73;;;3.97;;
16037;SDS011;8123;50.906;6.172;2022-07-29T06:58:13;7.60;;;3.90;;
16037;SDS011;8123;50.906;6.172;2022-07-29T07:00:41;7.53;;;4.30;;
16037;SDS011;8123;50.906;6.172;2022-07-29T07:03:07;12.00;;;4.40;;
16037;SDS011;8123;50.906;6.172;2022-07-29T07:05:32;4.87;;;4.43;;
16037;SDS011;8123;50.906;6.172;2022-07-29T07:07:58;12.63;;;4.30;;
16037;SDS011;8123;50.906;6.172;2022-07-29T07:10:24;7.50;;;4.43;;
16037;SDS011;8123;50.906;6.172;2022-07-29T07:12:49;12.07;;;3.97;;
16037;SDS011;8123;50.906;6.172;2022-07-29T07:15:15;8.37;;;5.30;;
16037;SDS011;8123;50.906;6.172;2022-07-29T07:17:41;9.17;;;4.90;;
16037;SDS011;8123;50.906;6.172;2022-07-29T07:20:07;7.90;;;4.30;;
16037;SDS011;8123;50.906;6.172;2022-07-29T07:22:32;6.77;;;4.70;;
16037;SDS011;8123;50.906;6.172;2022-07-29T07:24:58;9.27;;;4.30;;
16037;SDS011;8123;50.906;6.172;2022-07-29T07:27:24;7.50;;;4.27;;
16037;SDS011;8123;50.906;6.172;2022-07-29T07:29:49;10.30;;;4.60;;
16037;SDS011;8123;50.906;6.172;2022-07-29T07:32:15;5.33;;;4.83;;
16037;SDS011;8123;50.906;6.172;2022-07-29T07:34:44;22.43;;;4.70;;
16037;SDS011;8123;50.906;6.172;2022-07-29T07:37:10;9.80;;;4.80;;
16037;SDS011;8123;50.906;6.172;2022-07-29T07:39:35;9.97;;;4.57;;
16037;SDS011;8123;50.906;6.172;2022-07-29T07:42:01;7.30;;;4.27;;
16037;SDS011;8123;50.906;6.172;2022-07-29T07:44:26;5.90;;;4.00;;
16037;SDS011;8123;50.906;6.172;2022-07-29T07:46:52;12.40;;;4.40;;
16037;SDS011;8123;50.906;6.172;2022-07-29T07:49:18;9.10;;;4.07;;
16037;SDS011;8123;50.906;6.172;2022-07-29T07:51:43;12.20;;;4.23;;
16037;SDS011;8123;50.906;6.172;2022-07-29T07:54:09;9.50;;;4.33;;
16037;SDS011;8123;50.906;6.172;2022-07-29T07:56:35;9.63;;;4.60;;
16037;SDS011;8123;50.906;6.172;2022-07-29T07:59:00;8.97;;;4.43;;
16037;SDS011;8123;50.906;6.172;2022-07-29T08:01:26;7.83;;;4.03;;
16037;SDS011;8123;50.906;6.172;2022-07-29T08:03:51;9.07;;;3.50;;
16037;SDS011;8123;50.906;6.172;2022-07-29T08:06:17;14.03;;;4.43;;
16037;SDS011;8123;50.906;6.172;2022-07-29T08:08:43;10.43;;;4.33;;
16037;SDS011;8123;50.906;6.172;2022-07-29T08:11:08;11.83;;;4.93;;
16037;SDS011;8123;50.906;6.172;2022-07-29T08:13:34;9.33;;;4.33;;
16037;SDS011;8123;50.906;6.172;2022-07-29T08:16:00;5.77;;;3.87;;
16037;SDS011;8123;50.906;6.172;2022-07-29T08:18:30;16.70;;;4.60;;
16037;SDS011;8123;50.906;6.172;2022-07-29T08:20:56;7.00;;;3.60;;
16037;SDS011;8123;50.906;6.172;2022-07-29T08:23:23;15.93;;;4.23;;
16037;SDS011;8123;50.906;6.172;2022-07-29T08:25:49;18.37;;;4.33;;
16037;SDS011;8123;50.906;6.172;2022-07-29T08:28:15;7.03;;;3.60;;
16037;SDS011;8123;50.906;6.172;2022-07-29T08:30:41;8.47;;;4.00;;
16037;SDS011;8123;50.906;6.172;2022-07-29T08:33:07;5.37;;;3.83;;
16037;SDS011;8123;50.906;6.172;2022-07-29T08:35:32;15.83;;;3.80;;
16037;SDS011;8123;50.906;6.172;2022-07-29T08:37:58;16.10;;;5.07;;
16037;SDS011;8123;50.906;6.172;2022-07-29T08:40:23;12.83;;;4.10;;
16037;SDS011;8123;50.906;6.172;2022-07-29T08:42:50;9.13;;;4.30;;
16037;SDS011;8123;50.906;6.172;2022-07-29T08:45:15;20.87;;;4.63;;
16037;SDS011;8123;50.906;6.172;2022-07-29T08:47:43;13.50;;;4.40;;
16037;SDS011;8123;50.906;6.172;2022-07-29T08:50:10;14.83;;;4.40;;
16037;SDS011;8123;50.906;6.172;2022-07-29T08:52:37;16.70;;;5.13;;
16037;SDS011;8123;50.906;6.172;2022-07-29T08:55:05;9.90;;;5.20;;
16037;SDS011;8123;50.906;6.172;2022-07-29T08:57:32;13.87;;;4.47;;
16037;SDS011;8123;50.906;6.172;2022-07-29T09:00:00;20.27;;;5.53;;
16037;SDS011;8123;50.906;6.172;2022-07-29T09:02:27;10.90;;;4.77;;
16037;SDS011;8123;50.906;6.172;2022-07-29T09:04:59;7.20;;;4.50;;
16037;SDS011;8123;50.906;6.172;2022-07-29T09:07:26;16.23;;;4.57;;
16037;SDS011;8123;50.906;6.172;2022-07-29T09:09:52;17.30;;;4.97;;
16037;SDS011;8123;50.906;6.172;2022-07-29T09:12:18;11.67;;;4.73;;
16037;SDS011;8123;50.906;6.172;2022-07-29T09:14:44;17.27;;;5.07;;
16037;SDS011;8123;50.906;6.172;2022-07-29T09:17:09;19.40;;;4.70;;
16037;SDS011;8123;50.906;6.172;2022-07-29T09:19:35;9.97;;;5.17;;
16037;SDS011;8123;50.906;6.172;2022-07-29T09:22:06;8.00;;;4.60;;
16037;SDS011;8123;50.906;6.172;2022-07-29T09:24:36;7.83;;;5.00;;
16037;SDS011;8123;50.906;6.172;2022-07-29T09:35:24;9.33;;;5.03;;
16037;SDS011;8123;50.906;6.172;2022-07-29T09:37:50;9.97;;;4.50;;
16037;SDS011;8123;50.906;6.172;2022-07-29T09:40:17;8.20;;;4.53;;
16037;SDS011;8123;50.906;6.172;2022-07-29T09:42:45;8.20;;;4.40;;
16037;SDS011;8123;50.906;6.172;2022-07-29T09:45:12;7.27;;;5.17;;
16037;SDS011;8123;50.906;6.172;2022-07-29T09:47:50;6.13;;;4.70;;
16037;SDS011;8123;50.906;6.172;2022-07-29T09:50:16;6.67;;;4.70;;
16037;SDS011;8123;50.906;6.172;2022-07-29T09:52:48;8.07;;;4.30;;
16037;SDS011;8123;50.906;6.172;2022-07-29T09:55:15;12.40;;;4.23;;
16037;SDS011;8123;50.906;6.172;2022-07-29T09:57:42;5.50;;;4.40;;
16037;SDS011;8123;50.906;6.172;2022-07-29T10:00:09;10.90;;;5.40;;
16037;SDS011;8123;50.906;6.172;2022-07-29T10:02:37;12.73;;;4.67;;
16037;SDS011;8123;50.906;6.172;2022-07-29T10:05:06;11.87;;;6.00;;
16037;SDS011;8123;50.906;6.172;2022-07-29T10:07:48;9.43;;;5.23;;
16037;SDS011;8123;50.906;6.172;2022-07-29T10:10:23;8.30;;;5.50;;
16037;SDS011;8123;50.906;6.172;2022-07-29T10:12:57;18.97;;;5.90;;
16037;SDS011;8123;50.906;6.172;2022-07-29T10:15:25;16.40;;;5.53;;
16037;SDS011;8123;50.906;6.172;2022-07-29T10:17:53;10.20;;;6.17;;
16037;SDS011;8123;50.906;6.172;2022-07-29T10:20:20;16.73;;;6.97;;
16037;SDS011;8123;50.906;6.172;2022-07-29T10:22:47;13.13;;;6.93;;
16037;SDS011;8123;50.906;6.172;2022-07-29T10:25:14;9.13;;;5.80;;
16037;SDS011;8123;50.906;6.172;2022-07-29T10:27:41;12.57;;;7.40;;
16037;SDS011;8123;50.906;6.172;2022-07-29T10:30:08;18.47;;;6.70;;
16037;SDS011;8123;50.906;6.172;2022-07-29T10:35:19;12.23;;;6.10;;
16037;SDS011;8123;50.906;6.172;2022-07-29T10:41:39;10.70;;;6.77;;
16037;SDS011;8123;50.906;6.172;2022-07-29T10:44:00;12.93;;;6.20;;
16037;SDS011;8123;50.906;6.172;2022-07-29T10:46:26;9.93;;;6.10;;
16037;SDS011;8123;50.906;6.172;2022-07-29T10:49:06;9.97;;;6.50;;
16037;SDS011;8123;50.906;6.172;2022-07-29T10:59:51;12.43;;;7.43;;
16037;SDS011;8123;50.906;6.172;2022-07-29T11:07:23;8.80;;;6.20;;
16037;SDS011;8123;50.906;6.172;2022-07-29T11:15:02;8.43;;;6.50;;
16037;SDS011;8123;50.906;6.172;2022-07-29T11:23:19;12.47;;;5.97;;
16037;SDS011;8123;50.906;6.172;2022-07-29T11:31:34;8.73;;;5.37;;
16037;SDS011;8123;50.906;6.172;2022-07-29T11:39:42;10.60;;;5.57;;
16037;SDS011;8123;50.906;6.172;2022-07-29T11:50:16;10.70;;;6.20;;
16037;SDS011;8123;50.906;6.172;2022-07-29T11:52:50;13.87;;;8.33;;
16037;SDS011;8123;50.906;6.172;2022-07-29T11:55:17;9.67;;;7.03;;
16037;SDS011;8123;50.906;6.172;2022-07-29T11:57:45;11.23;;;5.60;;
16037;SDS011;8123;50.906;6.172;2022-07-29T12:00:28;7.30;;;5.80;;
16037;SDS011;8123;50.906;6.172;2022-07-29T12:02:54;20.87;;;6.10;;
16037;SDS011;8123;50.906;6.172;2022-07-29T12:05:20;9.53;;;5.40;;
16037;SDS011;8123;50.906;6.172;2022-07-29T12:07:54;7.73;;;5.73;;
16037;SDS011;8123;50.906;6.172;2022-07-29T12:10:20;7.73;;;5.40;;
16037;SDS011;8123;50.906;6.172;2022-07-29T12:12:50;10.10;;;5.57;;
16037;SDS011;8123;50.906;6.172;2022-07-29T12:15:17;9.73;;;4.80;;
16037;SDS011;8123;50.906;6.172;2022-07-29T12:17:45;8.50;;;5.77;;
16037;SDS011;8123;50.906;6.172;2022-07-29T12:20:11;15.97;;;6.33;;
16037;SDS011;8123;50.906;6.172;2022-07-29T12:22:42;12.77;;;6.17;;
16037;SDS011;8123;50.906;6.172;2022-07-29T12:25:10;10.67;;;6.40;;
16037;SDS011;8123;50.906;6.172;2022-07-29T12:27:39;10.10;;;5.67;;
16037;SDS011;8123;50.906;6.172;2022-07-29T12:30:07;9.87;;;6.40;;
16037;SDS011;8123;50.906;6.172;2022-07-29T12:35:07;12.70;;;5.53;;
16037;SDS011;8123;50.906;6.172;2022-07-29T12:37:35;7.47;;;4.27;;
16037;SDS011;8123;50.906;6.172;2022-07-29T12:40:03;5.60;;;4.30;;
16037;SDS011;8123;50.906;6.172;2022-07-29T12:42:30;8.57;;;4.33;;
16037;SDS011;8123;50.906;6.172;2022-07-29T12:44:55;10.87;;;4.63;;
16037;SDS011;8123;50.906;6.172;2022-07-29T12:47:21;6.13;;;4.80;;
16037;SDS011;8123;50.906;6.172;2022-07-29T12:49:47;11.40;;;6.17;;
16037;SDS011;8123;50.906;6.172;2022-07-29T12:52:27;12.00;;;4.70;;
16037;SDS011;8123;50.906;6.172;2022-07-29T12:54:57;13.60;;;5.33;;
16037;SDS011;8123;50.906;6.172;2022-07-29T12:57:23;12.60;;;4.20;;
16037;SDS011;8123;50.906;6.172;2022-07-29T13:02:24;9.00;;;4.70;;
16037;SDS011;8123;50.906;6.172;2022-07-29T13:04:57;6.70;;;4.50;;
16037;SDS011;8123;50.906;6.172;2022-07-29T13:07:27;8.23;;;5.40;;
16037;SDS011;8123;50.906;6.172;2022-07-29T13:09:55;10.73;;;4.67;;
16037;SDS011;8123;50.906;6.172;2022-07-29T13:12:39;6.57;;;4.63;;
16037;SDS011;8123;50.906;6.172;2022-07-29T13:15:24;4.93;;;4.43;;
16037;SDS011;8123;50.906;6.172;2022-07-29T13:17:50;4.03;;;3.73;;
16037;SDS011;8123;50.906;6.172;2022-07-29T13:20:16;9.80;;;3.77;;
16037;SDS011;8123;50.906;6.172;2022-07-29T13:22:41;4.43;;;3.80;;
16037;SDS011;8123;50.906;6.172;2022-07-29T13:25:08;3.47;;;3.17;;
16037;SDS011;8123;50.906;6.172;2022-07-29T13:27:35;3.23;;;3.03;;
16037;SDS011;8123;50.906;6.172;2022-07-29T13:30:06;5.10;;;3.67;;
16037;SDS011;8123;50.906;6.172;2022-07-29T13:32:33;3.13;;;2.93;;
16037;SDS011;8123;50.906;6.172;2022-07-29T13:35:00;3.23;;;2.93;;
16037;SDS011;8123;50.906;6.172;2022-07-29T13:37:31;4.10;;;2.97;;
16037;SDS011;8123;50.906;6.172;2022-07-29T13:39:59;3.53;;;3.33;;
16037;SDS011;8123;50.906;6.172;2022-07-29T13:42:24;3.37;;;3.07;;
16037;SDS011;8123;50.906;6.172;2022-07-29T13:44:51;6.00;;;3.33;;
16037;SDS011;8123;50.906;6.172;2022-07-29T13:47:18;2.83;;;2.53;;
16037;SDS011;8123;50.906;6.172;2022-07-29T13:49:44;4.90;;;3.30;;
16037;SDS011;8123;50.906;6.172;2022-07-29T13:52:10;4.73;;;3.70;;
16037;SDS011;8123;50.906;6.172;2022-07-29T13:54:36;4.60;;;3.30;;
16037;SDS011;8123;50.906;6.172;2022-07-29T13:57:02;2.90;;;2.70;;
16037;SDS011;8123;50.906;6.172;2022-07-29T13:59:29;3.50;;;2.70;;
16037;SDS011;8123;50.906;6.172;2022-07-29T14:01:55;4.73;;;3.43;;
16037;SDS011;8123;50.906;6.172;2022-07-29T14:04:21;3.17;;;2.93;;
16037;SDS011;8123;50.906;6.172;2022-07-29T14:06:48;11.80;;;3.50;;
16037;SDS011;8123;50.906;6.172;2022-07-29T14:09:14;7.70;;;2.77;;
16037;SDS011;8123;50.906;6.172;2022-07-29T14:11:40;5.00;;;3.37;;
16037;SDS011;8123;50.906;6.172;2022-07-29T14:14:06;6.43;;;3.10;;
16037;SDS011;8123;50.906;6.172;2022-07-29T14:16:32;8.37;;;2.90;;
16037;SDS011;8123;50.906;6.172;2022-07-29T14:18:57;3.10;;;2.90;;
16037;SDS011;8123;50.906;6.172;2022-07-29T14:21:23;6.53;;;3.60;;
16037;SDS011;8123;50.906;6.172;2022-07-29T14:23:49;6.50;;;3.00;;
16037;SDS011;8123;50.906;6.172;2022-07-29T14:26:14;3.40;;;3.10;;
16037;SDS011;8123;50.906;6.172;2022-07-29T14:28:40;6.27;;;3.00;;
16037;SDS011;8123;50.906;6.172;2022-07-29T14:31:05;6.27;;;3.40;;
16037;SDS011;8123;50.906;6.172;2022-07-29T14:33:31;3.23;;;2.97;;
16037;SDS011;8123;50.906;6.172;2022-07-29T14:35:57;5.33;;;3.00;;
16037;SDS011;8123;50.906;6.172;2022-07-29T14:38:22;3.10;;;2.80;;
16037;SDS011;8123;50.906;6.172;2022-07-29T14:40:48;3.30;;;3.00;;
16037;SDS011;8123;50.906;6.172;2022-07-29T14:43:14;5.27;;;3.03;;
16037;SDS011;8123;50.906;6.172;2022-07-29T14:45:40;3.27;;;3.07;;
16037;SDS011;8123;50.906;6.172;2022-07-29T14:48:06;3.30;;;3.00;;
16037;SDS011;8123;50.906;6.172;2022-07-29T14:50:32;4.40;;;3.37;;
16037;SDS011;8123;50.906;6.172;2022-07-29T14:52:58;3.53;;;3.33;;
16037;SDS011;8123;50.906;6.172;2022-07-29T14:55:24;7.00;;;3.30;;
16037;SDS011;8123;50.906;6.172;2022-07-29T14:57:50;7.10;;;4.83;;
16037;SDS011;8123;50.906;6.172;2022-07-29T15:00:16;5.10;;;4.60;;
16037;SDS011;8123;50.906;6.172;2022-07-29T15:02:42;4.70;;;4.20;;
16037;SDS011;8123;50.906;6.172;2022-07-29T15:05:08;4.33;;;3.93;;
16037;SDS011;8123;50.906;6.172;2022-07-29T15:07:34;4.73;;;3.87;;
16037;SDS011;8123;50.906;6.172;2022-07-29T15:09:59;4.90;;;4.50;;
16037;SDS011;8123;50.906;6.172;2022-07-29T15:12:25;6.90;;;4.50;;
16037;SDS011;8123;50.906;6.172;2022-07-29T15:14:50;5.17;;;4.63;;
16037;SDS011;8123;50.906;6.172;2022-07-29T15:17:16;4.80;;;4.27;;
16037;SDS011;8123;50.906;6.172;2022-07-29T15:19:42;6.37;;;4.90;;
16037;SDS011;8123;50.906;6.172;2022-07-29T15:22:07;6.10;;;5.03;;
16037;SDS011;8123;50.906;6.172;2022-07-29T15:24:33;6.23;;;4.60;;
16037;SDS011;8123;50.906;6.172;2022-07-29T15:26:59;4.43;;;3.97;;
16037;SDS011;8123;50.906;6.172;2022-07-29T15:29:24;5.43;;;4.90;;
16037;SDS011;8123;50.906;6.172;2022-07-29T15:31:50;7.60;;;4.70;;
16037;SDS011;8123;50.906;6.172;2022-07-29T15:34:16;5.27;;;4.77;;
16037;SDS011;8123;50.906;6.172;2022-07-29T15:36:41;6.20;;;5.17;;
16037;SDS011;8123;50.906;6.172;2022-07-29T15:39:07;7.97;;;4.90;;
16037;SDS011;8123;50.906;6.172;2022-07-29T15:41:34;6.17;;;4.70;;
16037;SDS011;8123;50.906;6.172;2022-07-29T15:43:59;5.00;;;4.40;;
16037;SDS011;8123;50.906;6.172;2022-07-29T15:46:25;9.23;;;5.20;;
16037;SDS011;8123;50.906;6.172;2022-07-29T15:49:09;5.70;;;5.13;;
16037;SDS011;8123;50.906;6.172;2022-07-29T15:51:35;4.83;;;4.10;;
16037;SDS011;8123;50.906;6.172;2022-07-29T15:54:01;4.27;;;3.87;;
16037;SDS011;8123;50.906;6.172;2022-07-29T15:56:27;4.33;;;3.93;;
16037;SDS011;8123;50.906;6.172;2022-07-29T15:58:53;9.33;;;4.20;;
16037;SDS011;8123;50.906;6.172;2022-07-29T16:01:19;9.73;;;4.50;;
16037;SDS011;8123;50.906;6.172;2022-07-29T16:03:45;7.13;;;5.70;;
16037;SDS011;8123;50.906;6.172;2022-07-29T16:06:10;9.40;;;4.70;;
16037;SDS011;8123;50.906;6.172;2022-07-29T16:08:36;6.37;;;3.93;;
16037;SDS011;8123;50.906;6.172;2022-07-29T16:11:02;7.50;;;4.77;;
16037;SDS011;8123;50.906;6.172;2022-07-29T16:13:27;10.60;;;4.50;;
16037;SDS011;8123;50.906;6.172;2022-07-29T16:15:53;12.60;;;5.47;;
16037;SDS011;8123;50.906;6.172;2022-07-29T16:18:19;6.37;;;4.77;;
16037;SDS011;8123;50.906;6.172;2022-07-29T16:20:44;8.00;;;4.07;;